Time;durP1;ratioP1;P1;durP2;ratioP2;P2;SDS_P1;SDS_P2;PMS_P1;PMS_P2;Temp;Humidity;BMP_temperature;BMP_pressure;BME280_temperature;BME280_humidity;BME280_pressure;Samples;Min_cycle;Max_cycle;Signal;HPM_P1;HPM_P2
2023/10/25 00:02:03;261027.00;0.87;450.91;0.00;0.00;0.62;;;;;17.50;1.00;;;;;;2354902;40;3669;-89
2023/10/25 00:04:39;463555.00;1.55;799.10;0.00;0.00;0.62;;;;;17.50;1.00;;;;;;2279649;61;1596;-88
2023/10/25 00:07:11;173582.00;0.58;300.44;0.00;0.00;0.62;;;;;17.70;1.00;;;;;;2288944;55;3762;-89
2023/10/25 00:14:43;764336.00;2.55;1318.99;0.00;0.00;0.62;;;;;17.30;1.00;;;;;;2280954;55;3641;-88
2023/10/25 00:17:13;230746.00;0.77;398.83;0.00;0.00;0.62;;;;;17.40;1.00;;;;;;2324517;55;3815;-89
2023/10/25 00:19:43;328648.00;1.10;567.16;861.00;0.00;2.11;;;;;17.40;1.00;;;;;;2291100;55;3758;-86
2023/10/25 00:24:41;624154.00;2.08;1075.94;0.00;0.00;0.62;;;;;17.50;1.00;;;;;;2281714;55;3641;-87
2023/10/25 00:27:12;197365.00;0.66;341.39;0.00;0.00;0.62;;;;;17.60;1.00;;;;;;2275930;61;1556;-88
2023/10/25 00:29:45;160888.00;0.54;278.57;0.00;0.00;0.62;;;;;17.60;1.00;;;;;;2313167;40;3426;-88
2023/10/25 00:32:14;188738.00;0.63;326.54;0.00;0.00;0.62;;;;;17.60;1.00;;;;;;2291141;55;3837;-89
2023/10/25 00:34:42;15275.00;0.05;27.09;0.00;0.00;0.62;;;;;17.60;1.00;;;;;;2325984;55;3778;-89
2023/10/25 00:39:40;532494.00;1.77;917.79;0.00;0.00;0.62;;;;;17.70;1.00;;;;;;1592071;41;3588;-88
2023/10/25 00:54:39;804138.00;2.68;1388.34;0.00;0.00;0.62;;;;;16.30;1.00;;;;;;2281875;61;1351;-88
2023/10/25 00:57:08;35900.00;0.12;62.79;0.00;0.00;0.62;;;;;16.10;1.00;;;;;;2282391;55;3731;-87
2023/10/25 00:59:38;218446.00;0.73;377.67;0.00;0.00;0.62;;;;;16.50;2.60;;;;;;2280145;61;1587;-90
2023/10/25 01:07:17;384579.00;1.28;663.30;0.00;0.00;0.62;;;;;16.90;1.00;;;;;;2285798;40;3483;-90
2023/10/25 01:09:53;419937.00;1.40;724.08;0.00;0.00;0.62;;;;;16.60;1.00;;;;;;2271897;61;1918;-88
2023/10/25 01:15:04;125682424.00;418.94;80433032.00;83756.00;0.28;145.52;;;;;16.90;1.00;;;;;;982587;40;3227;-89
2023/10/25 01:20:06;934122.00;3.11;1616.13;155718.00;0.52;269.66;;;;;17.10;1.00;;;;;;2277708;61;1233;-87
2023/10/25 01:25:09;1290376.00;4.30;2254.50;122134.00;0.41;211.76;;;;;17.00;1.00;;;;;;2277938;61;1383;-88
2023/10/25 01:27:42;890767.00;2.97;1539.91;161639.00;0.54;279.86;;;;;16.80;1.00;;;;;;2275936;61;1750;-88
2023/10/25 01:30:15;761743.00;2.54;1314.48;34456.00;0.11;60.30;;;;;16.40;1.00;;;;;;2276007;61;2014;-88
2023/10/25 01:32:45;809023.00;2.70;1396.86;50851.00;0.17;88.66;;;;;16.40;1.00;;;;;;2275951;61;1596;-88
2023/10/25 01:35:13;774236.00;2.58;1336.23;63930.00;0.21;111.27;;;;;16.50;1.00;;;;;;2275804;61;1814;-86
2023/10/25 01:37:43;741494.00;2.47;1279.27;44940.00;0.15;78.43;;;;;16.40;1.00;;;;;;2275853;61;1697;-90
2023/10/25 01:40:13;596211.00;1.99;1027.68;0.00;0.00;0.62;;;;;16.50;1.20;;;;;;2275925;61;934;-88
2023/10/25 01:42:55;1091709.00;3.64;1895.60;32850.00;0.11;57.52;;;;;16.60;1.00;;;;;;2275833;61;1698;-87
2023/10/25 01:45:23;166647.00;0.56;288.49;0.00;0.00;0.62;;;;;16.60;1.00;;;;;;2275867;61;1579;-89
2023/10/25 01:47:52;155025.00;0.52;268.47;0.00;0.00;0.62;;;;;16.40;1.00;;;;;;2275829;61;1775;-87
2023/10/25 01:50:26;333715.00;1.11;575.87;0.00;0.00;0.62;;;;;16.40;1.00;;;;;;2282695;55;3721;-88
2023/10/25 01:55:24;888744.00;2.96;1536.36;0.00;0.00;0.62;;;;;16.70;1.00;;;;;;2277490;61;1407;-88
2023/10/25 01:57:57;275968.00;0.92;476.61;0.00;0.00;0.62;;;;;16.80;1.00;;;;;;2275686;61;1506;-87
2023/10/25 02:00:24;171521.00;0.57;296.89;0.00;0.00;0.62;;;;;16.60;1.00;;;;;;2275940;61;787;-88
2023/10/25 02:02:56;328220.00;1.09;566.43;64133.00;0.21;111.62;;;;;16.50;1.00;;;;;;2275886;61;1491;-88
2023/10/25 02:05:25;0.00;0.00;0.62;0.00;0.00;0.62;;;;;16.60;1.00;;;;;;2275867;61;1712;-88
2023/10/25 02:10:30;450509.00;1.50;776.66;57074.00;0.19;99.42;;;;;16.50;1.00;;;;;;2273590;61;1967;-89
2023/10/25 02:13:00;0.00;0.00;0.62;0.00;0.00;0.62;;;;;16.60;1.00;;;;;;2269287;61;1643;-90
2023/10/25 02:15:32;311162.00;1.04;537.11;0.00;0.00;0.62;;;;;16.80;1.00;;;;;;2267526;61;1624;-87
2023/10/25 02:18:03;217829.00;0.73;376.61;38251.00;0.13;66.86;;;;;16.90;1.00;;;;;;2267706;61;1619;-87
2023/10/25 02:20:35;82600.00;0.28;143.53;0.00;0.00;0.62;;;;;16.90;1.00;;;;;;2267710;61;1707;-89
2023/10/25 02:25:40;25850.00;0.09;45.40;0.00;0.00;0.62;;;;;16.00;1.00;;;;;;1525754;40;3219;-88
2023/10/25 02:30:58;538878.00;1.80;928.79;0.00;0.00;0.62;;;;;15.60;2.00;;;;;;2293101;56;3558;-88
2023/10/25 02:33:28;349960.00;1.17;603.79;0.00;0.00;0.62;;;;;15.50;1.00;;;;;;2275771;61;1803;-87
2023/10/25 02:36:00;424706.00;1.42;732.28;83615.00;0.28;145.28;;;;;15.10;1.00;;;;;;2298468;40;3776;-88
2023/10/25 02:38:33;435296.00;1.45;750.49;73328.00;0.24;127.51;;;;;15.00;1.90;;;;;;2275786;61;1609;-87
2023/10/25 02:41:02;311989.00;1.04;538.53;88777.00;0.30;154.20;;;;;15.40;2.60;;;;;;2275731;61;1571;-89
2023/10/25 02:43:31;372686.00;1.24;642.85;84848.00;0.28;147.41;;;;;15.80;3.10;;;;;;2275702;61;1495;-88
2023/10/25 02:46:12;584657.00;1.95;1007.73;82763.00;0.28;143.81;;;;;16.00;3.20;;;;;;2275816;61;1450;-90
2023/10/25 02:48:44;692664.00;2.31;1194.52;37797.00;0.13;66.08;;;;;15.90;1.00;;;;;;2276116;61;2008;-89
2023/10/25 02:51:13;833695.00;2.78;1439.95;37252.00;0.12;65.13;;;;;15.70;1.00;;;;;;2276489;61;1793;-88
2023/10/25 02:56:15;1376166.00;4.59;2412.19;43539.00;0.15;76.01;;;;;15.60;1.50;;;;;;2270349;61;1432;-90
2023/10/25 02:58:45;788367.00;2.63;1360.84;95518.00;0.32;165.83;;;;;15.80;1.00;;;;;;2268375;61;1725;-87
2023/10/25 03:01:22;791392.00;2.64;1366.12;23091.00;0.08;40.62;;;;;15.90;1.20;;;;;;2268391;61;1770;-89
2023/10/25 03:03:49;264131.00;0.88;456.25;59393.00;0.20;103.43;;;;;16.10;1.00;;;;;;2268520;61;1631;-88
2023/10/25 03:06:16;306311.00;1.02;528.77;16509.00;0.06;29.22;;;;;16.20;1.10;;;;;;2268635;61;1635;-87
2023/10/25 03:08:44;785522.00;2.62;1355.89;17995.00;0.06;31.80;;;;;16.40;1.00;;;;;;2268563;61;1967;-88
2023/10/25 03:11:14;521493.00;1.74;898.84;52601.00;0.18;91.68;;;;;16.40;1.00;;;;;;2268506;61;1695;-88
2023/10/25 03:13:46;203603.00;0.68;352.13;0.00;0.00;0.62;;;;;16.00;1.00;;;;;;2268590;61;1526;-89
2023/10/25 03:16:13;98271.00;0.33;170.59;0.00;0.00;0.62;;;;;16.00;1.00;;;;;;2268721;61;1692;-88
2023/10/25 03:18:40;233654.00;0.78;403.83;0.00;0.00;0.62;;;;;15.80;1.00;;;;;;2268722;61;1486;-87
2023/10/25 03:21:07;133118.00;0.44;230.71;0.00;0.00;0.62;;;;;15.70;1.20;;;;;;2268646;61;1259;-88
2023/10/25 03:23:37;243230.00;0.81;420.31;0.00;0.00;0.62;;;;;15.60;1.00;;;;;;2268579;61;1290;-89
2023/10/25 03:26:05;153568.00;0.51;265.96;0.00;0.00;0.62;;;;;15.70;2.30;;;;;;2268445;61;1449;-89
2023/10/25 03:28:35;131395.00;0.44;227.73;0.00;0.00;0.62;;;;;15.60;1.00;;;;;;2268472;61;1612;-89
2023/10/25 03:31:12;209419.00;0.70;362.14;0.00;0.00;0.62;;;;;15.30;1.00;;;;;;2268443;61;1480;-92
2023/10/25 03:33:39;116997.00;0.39;202.90;0.00;0.00;0.62;;;;;15.40;1.50;;;;;;2285528;56;3889;-88
2023/10/25 03:36:06;113583.00;0.38;197.01;0.00;0.00;0.62;;;;;15.60;1.50;;;;;;2280538;61;1512;-86
2023/10/25 03:38:35;175641.00;0.59;303.98;0.00;0.00;0.62;;;;;15.60;1.90;;;;;;2280656;61;1428;-90
2023/10/25 03:41:09;194638.00;0.65;336.69;0.00;0.00;0.62;;;;;15.50;2.10;;;;;;2280719;61;1053;-89
2023/10/25 03:46:08;582486.00;1.94;1003.99;0.00;0.00;0.62;;;;;14.70;1.00;;;;;;2274777;61;1364;-89
2023/10/25 03:48:36;417436.00;1.39;719.78;0.00;0.00;0.62;;;;;14.50;1.00;;;;;;2272393;61;1548;-89
2023/10/25 03:53:35;382321.00;1.27;659.41;0.00;0.00;0.62;;;;;14.70;1.70;;;;;;2278627;61;1415;-88
2023/10/25 03:56:04;81066.00;0.27;140.88;0.00;0.00;0.62;;;;;15.10;2.60;;;;;;2276710;61;934;-90
2023/10/25 03:58:33;224286.00;0.75;387.72;0.00;0.00;0.62;;;;;15.20;2.70;;;;;;2276601;61;1598;-88
2023/10/25 04:01:05;0.00;0.00;0.62;0.00;0.00;0.62;;;;;14.90;3.40;;;;;;2276412;61;1569;-89
2023/10/25 04:03:37;214912.00;0.72;371.59;46782.00;0.16;81.62;;;;;14.70;2.30;;;;;;2276586;61;1619;-88
2023/10/25 04:06:08;337735.00;1.13;582.78;0.00;0.00;0.62;;;;;14.70;1.20;;;;;;2283522;56;3770;-88
2023/10/25 04:08:39;150928.00;0.50;261.41;0.00;0.00;0.62;;;;;14.80;2.40;;;;;;2276577;61;1498;-89
2023/10/25 04:11:08;268209.00;0.89;463.26;0.00;0.00;0.62;;;;;15.30;3.10;;;;;;2276505;61;1930;-88
2023/10/25 04:13:37;123540.00;0.41;214.19;0.00;0.00;0.62;;;;;15.70;2.90;;;;;;2276543;61;1623;-89
2023/10/25 04:16:12;34625.00;0.12;60.59;0.00;0.00;0.62;;;;;15.80;1.00;;;;;;2276530;61;1608;-88
2023/10/25 04:18:42;233657.00;0.78;403.84;0.00;0.00;0.62;;;;;15.70;1.00;;;;;;2276495;61;1141;-90
2023/10/25 04:21:12;249044.00;0.83;430.31;0.00;0.00;0.62;;;;;15.20;1.90;;;;;;2276519;61;1470;-88
2023/10/25 04:23:43;370049.00;1.23;638.32;50646.00;0.17;88.30;;;;;15.50;2.80;;;;;;2276442;61;1717;-88
2023/10/25 04:26:13;328944.00;1.10;567.67;125260.00;0.42;217.15;;;;;15.70;3.00;;;;;;2276418;61;1605;-91
2023/10/25 04:28:43;120510.00;0.40;208.96;0.00;0.00;0.62;;;;;15.90;1.90;;;;;;2276507;61;1715;-89
2023/10/25 04:31:10;130874.00;0.44;226.84;0.00;0.00;0.62;;;;;15.80;1.00;;;;;;2276604;61;1943;-88
2023/10/25 04:33:41;250373.00;0.83;432.59;0.00;0.00;0.62;;;;;15.80;1.70;;;;;;2276369;61;1608;-87
2023/10/25 04:36:10;157641.00;0.53;272.97;0.00;0.00;0.62;;;;;15.90;2.30;;;;;;2276493;61;1639;-89
2023/10/25 04:38:38;268196.00;0.89;463.24;0.00;0.00;0.62;;;;;15.70;1.00;;;;;;2276544;61;1556;-89
2023/10/25 04:41:06;181606.00;0.61;314.26;0.00;0.00;0.62;;;;;15.30;1.00;;;;;;2276524;61;1496;-87
2023/10/25 04:43:33;170899.00;0.57;295.82;0.00;0.00;0.62;;;;;15.00;1.00;;;;;;2276399;61;1549;-91
2023/10/25 04:46:03;200635.00;0.67;347.02;0.00;0.00;0.62;;;;;15.00;1.00;;;;;;2276530;61;1609;-89
2023/10/25 04:48:30;26648.00;0.09;46.78;0.00;0.00;0.62;;;;;15.10;1.00;;;;;;2276506;61;1605;-87
2023/10/25 04:51:00;190823.00;0.64;330.13;886.00;0.00;2.16;;;;;15.10;1.00;;;;;;2276501;61;1998;-86
2023/10/25 04:53:28;35568.00;0.12;62.22;0.00;0.00;0.62;;;;;14.90;1.00;;;;;;2276504;61;1364;-88
2023/10/25 04:55:55;211504.00;0.71;365.72;19850.00;0.07;35.01;;;;;14.80;1.00;;;;;;2276505;61;934;-88
2023/10/25 04:58:25;168524.00;0.56;291.72;0.00;0.00;0.62;;;;;14.90;1.00;;;;;;2276341;61;1411;-89
2023/10/25 05:00:54;64356.00;0.21;112.01;0.00;0.00;0.62;;;;;14.40;1.00;;;;;;2276251;61;1480;-88
2023/10/25 05:05:54;413529.00;1.38;713.06;0.00;0.00;0.62;;;;;14.90;1.00;;;;;;2274471;61;1221;-89
2023/10/25 05:08:23;0.00;0.00;0.62;0.00;0.00;0.62;;;;;15.00;1.00;;;;;;2272323;61;1600;-89
2023/10/25 05:10:57;191934.00;0.64;332.04;0.00;0.00;0.62;;;;;14.70;1.60;;;;;;2272210;61;2007;-89
2023/10/25 05:13:27;225979.00;0.75;390.63;0.00;0.00;0.62;;;;;14.70;1.20;;;;;;2269033;61;1566;-89
2023/10/25 05:18:26;451380.00;1.50;778.16;0.00;0.00;0.62;;;;;14.70;1.00;;;;;;2277713;61;1343;-89
2023/10/25 05:21:00;305625.00;1.02;527.59;0.00;0.00;0.62;;;;;14.50;1.00;;;;;;2276234;61;1452;-90
2023/10/25 05:23:32;142951.00;0.48;247.66;0.00;0.00;0.62;;;;;14.70;1.00;;;;;;2276269;61;1478;-88
2023/10/25 05:28:39;83507.00;0.28;145.09;0.00;0.00;0.62;;;;;15.10;2.50;;;;;;848044;40;3212;-88
2023/10/25 05:31:09;220857.00;0.74;381.82;54115.00;0.18;94.30;;;;;15.50;2.80;;;;;;2276222;61;1920;-88
2023/10/25 05:33:39;188707.00;0.63;326.48;0.00;0.00;0.62;;;;;15.70;1.00;;;;;;2276493;61;1417;-88
2023/10/25 05:36:07;109595.00;0.37;190.13;0.00;0.00;0.62;;;;;15.70;1.00;;;;;;2276419;61;1553;-88
2023/10/25 05:38:35;137021.00;0.46;237.44;0.00;0.00;0.62;;;;;15.90;1.00;;;;;;2276364;61;1097;-91
2023/10/25 05:41:13;129527.00;0.43;224.51;0.00;0.00;0.62;;;;;16.00;1.00;;;;;;2276259;61;1658;-88
2023/10/25 05:43:45;153519.00;0.51;265.87;0.00;0.00;0.62;;;;;16.00;1.00;;;;;;2277905;55;3796;-88
2023/10/25 05:46:12;272154.00;0.91;470.05;0.00;0.00;0.62;;;;;16.10;1.00;;;;;;2276239;61;1649;-89
2023/10/25 05:48:42;169501.00;0.57;293.41;0.00;0.00;0.62;;;;;16.10;1.00;;;;;;2276440;61;1034;-90
2023/10/25 05:51:13;210687.00;0.70;364.32;3763.00;0.01;7.14;;;;;16.10;1.00;;;;;;2276342;61;2001;-87
2023/10/25 05:53:40;349707.00;1.17;603.36;79899.00;0.27;138.86;;;;;15.80;1.00;;;;;;2276379;61;1600;-89
2023/10/25 05:56:09;341901.00;1.14;589.94;102855.00;0.34;178.50;;;;;15.50;1.00;;;;;;2276377;61;2253;-88
2023/10/25 05:58:39;421899.00;1.41;727.46;81936.00;0.27;142.38;;;;;15.10;1.00;;;;;;2276122;61;1491;-89
2023/10/25 06:01:10;391433.00;1.30;675.08;82269.00;0.27;142.96;;;;;14.60;1.00;;;;;;2276223;61;1716;-90
2023/10/25 06:03:39;508828.00;1.70;877.02;74294.00;0.25;129.18;;;;;14.20;1.00;;;;;;2276192;61;1460;-90
2023/10/25 06:06:12;211222.00;0.70;365.24;80121.00;0.27;139.25;;;;;14.10;1.00;;;;;;2276340;61;1173;-89
2023/10/25 06:08:40;451415.00;1.50;778.22;149395.00;0.50;258.76;;;;;13.90;1.00;;;;;;2276215;61;2327;-87
2023/10/25 06:11:08;435616.00;1.45;751.04;187701.00;0.63;324.75;;;;;14.00;1.00;;;;;;2276203;61;2002;-88
2023/10/25 06:13:36;423389.00;1.41;730.02;108497.00;0.36;188.24;;;;;14.20;1.10;;;;;;2276239;61;1695;-89
2023/10/25 06:16:03;395179.00;1.32;681.52;82754.00;0.28;143.79;;;;;14.60;1.10;;;;;;2276217;61;1019;-89
2023/10/25 06:18:32;334080.00;1.11;576.50;85588.00;0.29;148.69;;;;;14.90;2.40;;;;;;2276215;61;1002;-88
2023/10/25 06:20:59;423595.00;1.41;730.37;88460.00;0.29;153.65;;;;;15.20;1.00;;;;;;2276099;61;1454;-88
2023/10/25 06:23:29;306861.00;1.02;529.71;82780.00;0.28;143.84;;;;;15.40;1.00;;;;;;2276507;61;1313;-89
2023/10/25 06:25:56;515642.00;1.72;888.76;84066.00;0.28;146.06;;;;;15.80;1.00;;;;;;2276808;61;1540;-87
2023/10/25 06:28:25;330086.00;1.10;569.63;72583.00;0.24;126.22;;;;;15.80;1.00;;;;;;2276856;61;1506;-88
2023/10/25 06:30:54;586335.00;1.95;1010.63;111074.00;0.37;192.68;;;;;15.80;1.00;;;;;;2276833;61;2007;-88
2023/10/25 06:33:21;242436.00;0.81;418.94;82685.00;0.28;143.68;;;;;15.50;1.00;;;;;;2276920;61;1711;-89
2023/10/25 06:35:50;363920.00;1.21;627.79;94297.00;0.31;163.73;;;;;15.00;1.00;;;;;;2276934;61;1026;-87
2023/10/25 06:38:18;306401.00;1.02;528.92;89116.00;0.30;154.78;;;;;14.90;1.00;;;;;;2276746;61;1513;-89
2023/10/25 06:40:45;520864.00;1.74;897.75;89100.00;0.30;154.75;;;;;15.00;1.00;;;;;;2276888;61;1441;-87
2023/10/25 06:43:15;308446.00;1.03;532.44;101245.00;0.34;175.72;;;;;14.70;1.00;;;;;;2276967;61;1638;-89
2023/10/25 06:45:47;548021.00;1.83;944.55;83032.00;0.28;144.27;;;;;14.90;1.00;;;;;;2276834;61;1624;-88
2023/10/25 06:48:14;650667.00;2.17;1121.79;98143.00;0.33;170.37;;;;;15.00;1.00;;;;;;2276840;61;1646;-89
2023/10/25 06:53:13;1099176.00;3.66;1908.95;101026.00;0.34;175.34;;;;;14.70;1.00;;;;;;2278608;61;1419;-89
2023/10/25 06:55:41;872443.00;2.91;1507.77;87626.00;0.29;152.21;;;;;14.70;1.00;;;;;;2276758;61;1580;-86
2023/10/25 06:58:10;787371.00;2.62;1359.11;98992.00;0.33;171.83;;;;;14.80;1.00;;;;;;2276741;61;1048;-87
2023/10/25 07:00:40;924539.00;3.08;1599.26;83686.00;0.28;145.40;;;;;15.20;1.00;;;;;;2276769;61;1743;-89
2023/10/25 07:03:11;1179318.00;3.93;2052.87;112313.00;0.37;194.82;;;;;15.40;1.00;;;;;;2276757;61;1463;-88
2023/10/25 07:05:39;1019601.00;3.40;1767.22;144669.00;0.48;250.62;;;;;15.30;1.00;;;;;;2276707;61;1024;-88
2023/10/25 07:08:10;939565.00;3.13;1625.72;122797.00;0.41;212.91;;;;;15.30;1.00;;;;;;2276820;61;1703;-89
2023/10/25 07:10:39;1176894.00;3.92;2048.50;143894.00;0.48;249.28;;;;;15.50;1.00;;;;;;2276775;61;2017;-87
2023/10/25 07:13:11;915871.00;3.05;1584.01;76731.00;0.26;133.39;;;;;15.70;1.00;;;;;;2276697;61;1614;-88
2023/10/25 07:15:38;684708.00;2.28;1180.73;0.00;0.00;0.62;;;;;15.70;1.00;;;;;;2276713;61;1496;-88
2023/10/25 07:18:05;601354.00;2.00;1036.56;41469.00;0.14;72.43;;;;;15.60;1.00;;;;;;2276687;61;1537;-90
2023/10/25 07:20:32;645577.00;2.15;1112.98;49841.00;0.17;86.91;;;;;15.60;1.00;;;;;;2276799;61;1009;-89
2023/10/25 07:23:00;635810.00;2.12;1096.09;15342.00;0.05;27.20;;;;;15.50;1.00;;;;;;2276732;61;1529;-88
2023/10/25 07:25:28;352527.00;1.18;608.20;38035.00;0.13;66.49;;;;;15.60;1.00;;;;;;2276794;61;1586;-88
2023/10/25 07:27:57;820019.00;2.73;1416.06;32243.00;0.11;56.47;;;;;15.40;1.00;;;;;;2276759;61;1095;-89
2023/10/25 07:30:33;442031.00;1.47;762.08;42939.00;0.14;74.97;;;;;15.30;1.00;;;;;;2276663;61;1997;-89
2023/10/25 08:59:07;164896.00;0.55;285.47;14026.00;0.05;24.92;;;;;16.50;1.00;;;;;;2534834;55;1847;31
2023/10/25 09:02:22;1349631.00;4.50;2363.23;15432.00;0.05;27.36;;;;;16.70;1.20;;;;;;2503033;55;3946;31
2023/10/25 14:01:27;793172.00;2.64;1369.22;0.00;0.00;0.62;;;;;16.60;1.00;;;;;;2498726;41;3491;31
2023/10/25 15:50:25;449578.00;1.50;775.06;0.00;0.00;0.62;;;;;17.80;1.00;;;;;;2509319;55;3609;31
2023/10/25 16:31:11;848475.00;2.83;1465.80;86920.00;0.29;150.99;;;;;18.80;1.00;;;;;;2274869;61;1872;-91
2023/10/25 16:33:42;550377.00;1.83;948.61;75993.00;0.25;132.12;;;;;18.80;1.00;;;;;;2272976;61;1761;-92
2023/10/25 16:36:15;508244.00;1.69;876.02;80614.00;0.27;140.10;;;;;18.80;1.00;;;;;;2273080;61;1044;-93
2023/10/25 18:07:50;0.00;0.00;0.62;0.00;0.00;0.62;;;;;15.40;11.20;;;;;;2419211;40;3205;31
2023/10/25 19:53:38;1757860.00;5.86;3138.41;84389.00;0.28;146.62;;;;;14.80;2.40;;;;;;2318698;40;3652;-87
2023/10/25 20:44:11;467529.00;1.56;805.94;0.00;0.00;0.62;;;;;14.40;1.90;;;;;;2270637;61;1005;-91
2023/10/25 20:46:38;84218.00;0.28;146.32;0.00;0.00;0.62;;;;;14.70;1.20;;;;;;2268803;61;486;-91
2023/10/25 20:49:04;99516.00;0.33;172.74;0.00;0.00;0.62;;;;;14.50;1.00;;;;;;2268675;61;975;-90
2023/10/25 21:49:22;604008.00;2.01;1041.14;86083.00;0.29;149.54;;;;;14.50;1.00;;;;;;2303695;56;3609;-90
2023/10/25 22:14:54;660212.00;2.20;1138.31;0.00;0.00;0.62;;;;;15.20;1.00;;;;;;2297159;56;3592;-89
2023/10/25 22:47:47;347791.00;1.16;600.06;0.00;0.00;0.62;;;;;15.20;1.00;;;;;;2269152;61;1198;-88
2023/10/25 23:03:02;531878.00;1.77;916.73;0.00;0.00;0.62;;;;;17.00;1.00;;;;;;2269196;61;1413;-87
2023/10/25 23:38:22;1073650.00;3.58;1863.36;124678.00;0.42;216.15;;;;;17.00;1.00;;;;;;2269755;61;1416;-88
